createdAt,value
2018-02-11T00:00:18.499Z,36.83
2018-02-11T00:01:18.410Z,36.83
2018-02-11T00:03:11.188Z,36.73
2018-02-11T00:04:11.134Z,37.12
2018-02-11T00:06:03.943Z,36.73
2018-02-11T00:07:03.857Z,36.83
2018-02-11T00:08:56.634Z,36.73
2018-02-11T00:09:56.579Z,36.93
2018-02-11T00:11:49.390Z,36.83
2018-02-11T00:12:49.307Z,36.73
2018-02-11T00:14:42.087Z,36.83
2018-02-11T00:15:42.034Z,36.63
2018-02-11T00:17:34.840Z,36.83
2018-02-11T00:18:34.757Z,36.73
2018-02-11T00:20:27.534Z,36.73
2018-02-11T00:21:27.479Z,36.73
2018-02-11T00:23:20.289Z,36.54
2018-02-11T00:24:20.205Z,36.73
2018-02-11T00:26:12.986Z,36.83
2018-02-11T00:27:12.933Z,36.93
2018-02-11T00:29:05.741Z,36.93
2018-02-11T00:30:05.655Z,36.73
2018-02-11T00:31:58.434Z,36.93
2018-02-11T00:32:58.381Z,36.54
2018-02-11T00:34:51.192Z,36.93
2018-02-11T00:35:51.107Z,36.83
2018-02-11T00:37:43.887Z,37.02
2018-02-11T00:38:43.833Z,36.73
2018-02-11T00:40:36.643Z,36.73
2018-02-11T00:41:36.561Z,36.83
2018-02-11T00:43:29.338Z,36.63
2018-02-11T00:44:29.283Z,36.73
2018-02-11T00:46:22.097Z,36.63
2018-02-11T00:47:22.007Z,36.73
2018-02-11T00:49:14.784Z,36.63
2018-02-11T00:50:14.740Z,36.44
2018-02-11T00:52:07.541Z,36.15
2018-02-11T00:53:07.456Z,36.54
2018-02-11T00:55:00.234Z,36.06
2018-02-11T00:56:00.181Z,36.06
2018-02-11T00:57:52.991Z,36.73
2018-02-11T00:58:52.906Z,35.96
2018-02-11T01:00:45.683Z,36.63
2018-02-11T01:01:45.629Z,36.06
2018-02-11T01:03:38.441Z,35.96
2018-02-11T01:04:38.357Z,35.86
2018-02-11T01:06:31.133Z,36.06
2018-02-11T01:07:31.080Z,36.07
2018-02-11T01:09:23.891Z,36.07
2018-02-11T01:10:23.807Z,36.07
2018-02-11T01:12:16.587Z,36.36
2018-02-11T01:13:16.534Z,36.36
2018-02-11T01:15:09.342Z,36.65
2018-02-11T01:16:09.260Z,36.65
2018-02-11T01:18:02.036Z,36.46
2018-02-11T01:19:01.982Z,36.46
2018-02-11T01:20:54.793Z,36.36
2018-02-11T01:21:54.711Z,36.75
2018-02-11T01:23:47.492Z,36.75
2018-02-11T01:24:47.440Z,36.75
2018-02-11T01:26:40.249Z,36.85
2018-02-11T01:27:40.165Z,36.65
2018-02-11T01:29:32.944Z,36.75
2018-02-11T01:30:32.888Z,36.75
2018-02-11T01:32:25.695Z,37.23
2018-02-11T01:33:25.612Z,37.13
2018-02-11T01:35:18.390Z,37.13
2018-02-11T01:36:18.335Z,36.85
2018-02-11T01:38:11.145Z,36.94
2018-02-11T01:39:11.063Z,37.13
2018-02-11T01:41:03.840Z,37.23
2018-02-11T01:42:03.786Z,37.23
2018-02-11T01:43:56.595Z,37.13
2018-02-11T01:44:56.510Z,37.04
2018-02-11T01:46:49.291Z,37.04
2018-02-11T01:47:49.237Z,37.04
2018-02-11T01:49:42.047Z,37.13
2018-02-11T01:50:41.967Z,37.04
2018-02-11T01:52:34.743Z,37.13
2018-02-11T01:53:34.689Z,37.13
2018-02-11T01:55:27.499Z,37.13
2018-02-11T01:56:27.416Z,37.23
2018-02-11T01:58:20.194Z,37.71
2018-02-11T01:59:20.139Z,37.81
2018-02-11T02:01:12.948Z,37.71
2018-02-11T02:02:12.865Z,37.71
2018-02-11T02:04:05.642Z,37.91
2018-02-11T02:05:05.589Z,38.01
2018-02-11T02:06:58.399Z,38.08
2018-02-11T02:07:58.320Z,38.08
2018-02-11T02:09:51.094Z,38.37
2018-02-11T02:10:51.042Z,38.39
2018-02-11T02:12:43.848Z,38.66
2018-02-11T02:13:43.764Z,38.28
2018-02-11T02:15:36.547Z,38.37
2018-02-11T02:16:36.489Z,38.56
2018-02-11T02:18:29.297Z,39.24
2018-02-11T02:19:29.213Z,38.83
2018-02-11T02:21:21.992Z,39.12
2018-02-11T02:22:21.937Z,38.93
2018-02-11T02:24:14.748Z,38.83
2018-02-11T02:25:14.663Z,39.03
2018-02-11T02:27:07.443Z,38.93
2018-02-11T02:28:07.391Z,39.03
2018-02-11T02:30:00.199Z,39.12
2018-02-11T02:31:00.114Z,39.03
2018-02-11T02:32:52.893Z,39.89
2018-02-11T02:33:52.840Z,39.31
2018-02-11T02:35:45.646Z,39.22
2018-02-11T02:36:45.563Z,39.41
2018-02-11T02:38:38.343Z,39.49
2018-02-11T02:39:38.287Z,39.49
2018-02-11T02:41:31.097Z,39.78
2018-02-11T02:42:31.014Z,39.39
2018-02-11T02:44:23.789Z,39.68
2018-02-11T02:45:23.736Z,39.78
2018-02-11T02:47:16.542Z,39.68
2018-02-11T02:48:16.458Z,39.78
2018-02-11T02:50:09.236Z,39.78
2018-02-11T02:51:09.182Z,40.07
2018-02-11T02:53:01.989Z,40.07
2018-02-11T02:54:01.905Z,40.16
2018-02-11T02:55:54.681Z,40.26
2018-02-11T02:56:54.628Z,39.95
2018-02-11T02:58:47.434Z,39.97
2018-02-11T02:59:47.350Z,40.45
2018-02-11T03:01:40.128Z,40.63
2018-02-11T03:02:40.074Z,40.53
2018-02-11T03:04:32.884Z,40.24
2018-02-11T03:05:32.798Z,40.53
2018-02-11T03:07:25.576Z,40.53
2018-02-11T03:08:25.520Z,40.72
2018-02-11T03:10:18.329Z,40.34
2018-02-11T03:11:18.243Z,40.81
2018-02-11T03:13:11.019Z,40.81
2018-02-11T03:14:10.964Z,40.63
2018-02-11T03:16:03.779Z,41.01
2018-02-11T03:17:03.690Z,40.99
2018-02-11T03:18:56.465Z,40.91
2018-02-11T03:19:56.411Z,41.01
2018-02-11T03:21:49.217Z,40.89
2018-02-11T03:22:49.134Z,41.08
2018-02-11T03:24:41.909Z,40.89
2018-02-11T03:25:41.855Z,40.80
2018-02-11T03:27:34.660Z,40.99
2018-02-11T03:28:34.577Z,40.89
2018-02-11T03:30:27.353Z,40.99
2018-02-11T03:31:27.299Z,40.80
2018-02-11T03:33:20.105Z,41.18
2018-02-11T03:34:20.021Z,41.18
2018-02-11T03:36:12.795Z,41.28
2018-02-11T03:37:12.742Z,41.28
2018-02-11T03:39:05.548Z,41.28
2018-02-11T03:40:05.463Z,41.38
2018-02-11T03:41:58.240Z,41.18
2018-02-11T03:42:58.184Z,41.18
2018-02-11T03:44:50.991Z,40.99
2018-02-11T03:45:50.907Z,41.28
2018-02-11T03:47:43.683Z,40.89
2018-02-11T03:48:43.628Z,41.16
2018-02-11T03:50:36.436Z,41.18
2018-02-11T03:51:36.350Z,41.28
2018-02-11T03:53:29.129Z,41.45
2018-02-11T03:54:29.074Z,41.28
2018-02-11T03:56:21.884Z,41.45
2018-02-11T03:57:21.801Z,41.28
2018-02-11T03:59:14.574Z,41.26
2018-02-11T04:00:14.518Z,41.26
2018-02-11T04:02:07.322Z,41.55
2018-02-11T04:03:07.239Z,41.74
2018-02-11T04:05:00.017Z,41.45
2018-02-11T04:05:59.962Z,41.74
2018-02-11T04:07:52.768Z,41.74
2018-02-11T04:08:52.683Z,41.45
2018-02-11T04:10:45.462Z,41.74
2018-02-11T04:11:45.405Z,41.64
2018-02-11T04:13:38.213Z,41.55
2018-02-11T04:14:38.127Z,41.45
2018-02-11T04:16:30.903Z,41.35
2018-02-11T04:17:30.848Z,41.55
2018-02-11T04:19:23.653Z,41.64
2018-02-11T04:20:23.567Z,41.45
2018-02-11T04:22:16.344Z,41.62
2018-02-11T04:23:16.289Z,41.72
2018-02-11T04:25:09.094Z,41.53
2018-02-11T04:26:09.007Z,41.62
2018-02-11T04:28:01.784Z,41.62
2018-02-11T04:29:01.729Z,41.24
2018-02-11T04:30:54.535Z,41.62
2018-02-11T04:31:54.450Z,41.33
2018-02-11T04:33:47.226Z,41.62
2018-02-11T04:34:47.169Z,41.62
2018-02-11T04:36:39.976Z,41.43
2018-02-11T04:37:39.892Z,41.72
2018-02-11T04:39:32.668Z,41.33
2018-02-11T04:40:32.614Z,41.24
2018-02-11T04:42:25.419Z,41.62
2018-02-11T04:43:25.333Z,41.53
2018-02-11T04:45:18.107Z,41.53
2018-02-11T04:46:18.052Z,41.72
2018-02-11T04:48:10.856Z,41.62
2018-02-11T04:49:10.770Z,41.53
2018-02-11T04:51:03.546Z,41.72
2018-02-11T04:52:03.490Z,41.62
2018-02-11T04:53:56.296Z,41.79
2018-02-11T04:54:56.209Z,41.79
2018-02-11T04:56:48.983Z,41.70
2018-02-11T04:57:48.928Z,41.89
2018-02-11T04:59:41.730Z,41.70
2018-02-11T05:00:41.645Z,41.70
2018-02-11T05:02:34.424Z,41.70
2018-02-11T05:03:34.368Z,41.79
2018-02-11T05:05:27.176Z,41.79
2018-02-11T05:06:27.086Z,41.79
2018-02-11T05:08:19.859Z,41.70
2018-02-11T05:09:19.803Z,41.70
2018-02-11T05:11:12.609Z,41.70
2018-02-11T05:12:12.525Z,41.50
2018-02-11T05:14:05.302Z,41.41
2018-02-11T05:15:05.247Z,41.60
2018-02-11T05:16:58.052Z,41.31
2018-02-11T05:17:57.968Z,41.60
2018-02-11T05:19:50.739Z,41.41
2018-02-11T05:20:50.682Z,41.41
2018-02-11T05:22:43.486Z,41.70
2018-02-11T05:23:43.399Z,41.70
2018-02-11T05:25:36.171Z,41.60
2018-02-11T05:26:36.116Z,41.60
2018-02-11T05:28:28.921Z,41.60
2018-02-11T05:29:28.835Z,41.60
2018-02-11T05:31:21.610Z,41.60
2018-02-11T05:32:21.554Z,41.67
2018-02-11T05:34:14.359Z,41.60
2018-02-11T05:35:14.274Z,41.67
2018-02-11T05:37:07.047Z,41.67
2018-02-11T05:38:06.991Z,41.58
2018-02-11T05:39:59.799Z,41.67
2018-02-11T05:40:59.712Z,41.58
2018-02-11T05:42:52.486Z,41.67
2018-02-11T05:43:52.432Z,41.31
2018-02-11T05:45:45.234Z,41.58
2018-02-11T05:46:45.147Z,41.49
2018-02-11T05:48:37.922Z,41.49
2018-02-11T05:49:37.865Z,41.67
2018-02-11T05:51:30.672Z,41.49
2018-02-11T05:52:30.584Z,41.29
2018-02-11T05:54:23.360Z,41.58
2018-02-11T05:55:23.305Z,41.58
2018-02-11T05:57:16.112Z,41.49
2018-02-11T05:58:16.023Z,41.58
2018-02-11T06:00:08.803Z,41.67
2018-02-11T06:01:08.744Z,41.20
2018-02-11T06:03:01.550Z,41.39
2018-02-11T06:04:01.464Z,41.10
2018-02-11T06:05:54.238Z,41.39
2018-02-11T06:06:54.183Z,41.49
2018-02-11T06:08:46.985Z,41.49
2018-02-11T06:09:46.899Z,41.29
2018-02-11T06:11:39.674Z,41.20
2018-02-11T06:12:39.616Z,41.29
2018-02-11T06:14:32.419Z,41.20
2018-02-11T06:15:32.333Z,41.49
2018-02-11T06:17:25.106Z,41.39
2018-02-11T06:18:25.050Z,41.58
2018-02-11T06:20:17.854Z,41.29
2018-02-11T06:21:17.814Z,41.29
2018-02-11T06:23:10.543Z,41.39
2018-02-11T06:24:10.485Z,41.20
2018-02-11T06:26:03.291Z,41.39
2018-02-11T06:27:03.205Z,41.39
2018-02-11T06:28:55.982Z,41.20
2018-02-11T06:29:55.926Z,41.29
2018-02-11T06:31:48.731Z,41.37
2018-02-11T06:32:48.644Z,40.89
2018-02-11T06:34:41.418Z,41.08
2018-02-11T06:35:41.362Z,41.27
2018-02-11T06:37:34.165Z,41.46
2018-02-11T06:38:34.077Z,41.37
2018-02-11T06:40:26.851Z,41.37
2018-02-11T06:41:26.795Z,41.46
2018-02-11T06:43:19.597Z,41.46
2018-02-11T06:44:19.511Z,41.17
2018-02-11T06:46:12.282Z,41.08
2018-02-11T06:47:12.226Z,40.79
2018-02-11T06:49:05.027Z,41.08
2018-02-11T06:50:04.942Z,41.27
2018-02-11T06:51:57.716Z,41.17
2018-02-11T06:52:57.661Z,40.89
2018-02-11T06:54:50.463Z,40.99
2018-02-11T06:55:50.377Z,40.89
2018-02-11T06:57:43.149Z,40.89
2018-02-11T06:58:43.092Z,40.89
2018-02-11T07:00:35.895Z,40.99
2018-02-11T07:01:35.811Z,40.79
2018-02-11T07:03:28.582Z,41.08
2018-02-11T07:04:28.527Z,40.99
2018-02-11T07:06:21.328Z,40.70
2018-02-11T07:07:21.241Z,41.17
2018-02-11T07:09:14.013Z,40.89
2018-02-11T07:10:13.955Z,40.89
2018-02-11T07:12:06.759Z,40.79
2018-02-11T07:13:06.671Z,40.79
2018-02-11T07:14:59.446Z,40.89
2018-02-11T07:15:59.391Z,40.79
2018-02-11T07:17:52.193Z,40.99
2018-02-11T07:18:52.106Z,40.99
2018-02-11T07:20:44.878Z,40.60
2018-02-11T07:21:44.821Z,40.60
2018-02-11T07:23:37.625Z,40.99
2018-02-11T07:24:37.539Z,41.08
2018-02-11T07:26:30.309Z,41.17
2018-02-11T07:27:30.252Z,41.08
2018-02-11T07:29:23.056Z,40.99
2018-02-11T07:30:22.968Z,40.79
2018-02-11T07:32:15.741Z,40.50
2018-02-11T07:33:15.684Z,40.70
2018-02-11T07:35:08.488Z,40.67
2018-02-11T07:36:08.403Z,40.60
2018-02-11T07:38:01.175Z,40.39
2018-02-11T07:39:01.118Z,40.50
2018-02-11T07:40:53.922Z,39.72
2018-02-11T07:41:53.836Z,40.31
2018-02-11T07:43:46.609Z,40.29
2018-02-11T07:44:46.557Z,40.29
2018-02-11T07:46:39.354Z,40.20
2018-02-11T07:47:39.267Z,39.81
2018-02-11T07:49:32.039Z,39.93
2018-02-11T07:50:31.981Z,39.91
2018-02-11T07:52:24.786Z,40.00
2018-02-11T07:53:24.700Z,40.39
2018-02-11T07:55:17.471Z,40.29
2018-02-11T07:56:17.414Z,40.00
2018-02-11T07:58:10.219Z,39.91
2018-02-11T07:59:10.130Z,39.91
2018-02-11T08:01:02.902Z,40.00
2018-02-11T08:02:02.845Z,39.81
2018-02-11T08:03:55.648Z,40.20
2018-02-11T08:04:55.607Z,40.20
2018-02-11T08:06:48.331Z,39.93
2018-02-11T08:07:48.276Z,39.93
2018-02-11T08:09:41.077Z,40.39
2018-02-11T08:10:40.989Z,39.91
2018-02-11T08:12:33.761Z,40.29
2018-02-11T08:13:33.704Z,40.00
2018-02-11T08:15:26.511Z,40.29
2018-02-11T08:16:26.424Z,40.00
2018-02-11T08:18:19.195Z,39.81
2018-02-11T08:19:19.138Z,39.91
2018-02-11T08:21:11.943Z,40.10
2018-02-11T08:22:11.859Z,40.20
2018-02-11T08:24:04.627Z,40.00
2018-02-11T08:25:04.578Z,40.00
2018-02-11T08:26:57.373Z,40.20
2018-02-11T08:27:57.288Z,39.72
2018-02-11T08:29:50.060Z,40.00
2018-02-11T08:30:50.003Z,39.72
2018-02-11T08:32:42.803Z,39.72
2018-02-11T08:33:42.717Z,39.73
2018-02-11T08:35:35.491Z,39.62
2018-02-11T08:36:35.433Z,39.62
2018-02-11T08:38:28.237Z,40.00
2018-02-11T08:39:28.151Z,39.72
2018-02-11T08:41:20.925Z,39.62
2018-02-11T08:42:20.869Z,39.81
2018-02-11T08:44:13.672Z,39.72
2018-02-11T08:45:13.588Z,40.10
2018-02-11T08:47:06.361Z,39.91
2018-02-11T08:48:06.303Z,39.81
2018-02-11T08:49:59.105Z,40.10
2018-02-11T08:50:59.019Z,40.20
2018-02-11T08:52:51.789Z,39.53
2018-02-11T08:53:51.731Z,40.00
2018-02-11T08:55:44.533Z,40.00
2018-02-11T08:56:44.446Z,40.00
2018-02-11T08:58:37.219Z,39.81
2018-02-11T08:59:37.163Z,40.00
2018-02-11T09:01:29.966Z,40.00
2018-02-11T09:02:29.878Z,40.00
2018-02-11T09:04:22.649Z,40.10
2018-02-11T09:05:22.593Z,40.20
2018-02-11T09:07:15.395Z,40.20
2018-02-11T09:08:15.310Z,39.91
2018-02-11T09:10:08.082Z,40.48
2018-02-11T09:11:08.027Z,40.00
2018-02-11T09:13:00.828Z,40.29
2018-02-11T09:14:00.741Z,40.39
2018-02-11T09:15:53.513Z,40.39
2018-02-11T09:16:53.456Z,39.81
2018-02-11T09:18:46.257Z,40.39
2018-02-11T09:19:46.172Z,39.91
2018-02-11T09:21:38.944Z,40.29
2018-02-11T09:22:38.887Z,39.72
2018-02-11T09:24:31.696Z,40.10
2018-02-11T09:25:31.607Z,40.39
2018-02-11T09:27:24.402Z,40.50
2018-02-11T09:28:24.323Z,40.00
2018-02-11T09:30:17.127Z,40.00
2018-02-11T09:31:17.039Z,39.81
2018-02-11T09:33:09.811Z,40.00
2018-02-11T09:34:09.754Z,39.81
2018-02-11T09:36:02.558Z,39.72
2018-02-11T09:37:02.470Z,39.53
2018-02-11T09:38:55.248Z,39.81
2018-02-11T09:39:55.190Z,39.91
2018-02-11T09:41:47.993Z,39.72
2018-02-11T09:42:47.905Z,39.72
2018-02-11T09:44:40.677Z,39.91
2018-02-11T09:45:40.621Z,39.72
2018-02-11T09:47:33.427Z,39.91
2018-02-11T09:48:33.337Z,39.62
2018-02-11T09:50:26.110Z,39.53
2018-02-11T09:51:26.053Z,39.53
2018-02-11T09:53:18.853Z,39.72
2018-02-11T09:54:18.768Z,39.62
2018-02-11T09:56:11.540Z,39.72
2018-02-11T09:57:11.483Z,39.72
2018-02-11T09:59:04.286Z,39.53
2018-02-11T10:00:04.199Z,39.62
2018-02-11T10:01:56.975Z,39.81
2018-02-11T10:02:56.920Z,39.43
2018-02-11T10:04:49.721Z,39.91
2018-02-11T10:05:49.635Z,39.72
2018-02-11T10:07:42.409Z,40.00
2018-02-11T10:08:42.354Z,40.00
2018-02-11T10:10:35.158Z,39.62
2018-02-11T10:11:35.072Z,39.81
2018-02-11T10:13:27.845Z,39.62
2018-02-11T10:14:27.789Z,39.33
2018-02-11T10:16:20.591Z,39.62
2018-02-11T10:17:20.505Z,39.62
2018-02-11T10:19:13.284Z,39.23
2018-02-11T10:20:13.220Z,39.81
2018-02-11T10:22:06.023Z,39.72
2018-02-11T10:23:05.937Z,39.81
2018-02-11T10:24:58.707Z,39.64
2018-02-11T10:25:58.650Z,39.33
2018-02-11T10:27:51.455Z,39.62
2018-02-11T10:28:51.371Z,40.00
2018-02-11T10:30:44.143Z,39.43
2018-02-11T10:31:44.086Z,39.62
2018-02-11T10:33:36.895Z,39.14
2018-02-11T10:34:36.805Z,39.62
2018-02-11T10:36:29.576Z,40.00
2018-02-11T10:37:29.518Z,39.43
2018-02-11T10:39:22.323Z,39.53
2018-02-11T10:40:22.235Z,39.53
2018-02-11T10:42:15.006Z,39.72
2018-02-11T10:43:14.950Z,39.81
2018-02-11T10:45:07.752Z,39.81
2018-02-11T10:46:07.665Z,39.83
2018-02-11T10:48:00.441Z,39.72
2018-02-11T10:49:00.385Z,39.73
2018-02-11T10:50:53.192Z,39.91
2018-02-11T10:51:53.105Z,40.10
2018-02-11T10:53:45.878Z,39.72
2018-02-11T10:54:45.821Z,39.43
2018-02-11T10:56:38.624Z,40.00
2018-02-11T10:57:38.540Z,40.00
2018-02-11T10:59:31.311Z,39.72
2018-02-11T11:00:31.254Z,39.81
2018-02-11T11:02:24.063Z,40.20
2018-02-11T11:03:23.973Z,39.81
2018-02-11T11:05:16.749Z,40.29
2018-02-11T11:06:16.691Z,39.83
2018-02-11T11:08:09.494Z,39.26
2018-02-11T11:09:09.408Z,39.64
2018-02-11T11:11:02.183Z,39.47
2018-02-11T11:12:02.126Z,39.66
2018-02-11T11:13:54.931Z,39.08
2018-02-11T11:14:54.845Z,38.60
2018-02-11T11:16:47.616Z,39.20
2018-02-11T11:17:47.561Z,38.72
2018-02-11T11:19:40.365Z,38.64
2018-02-11T11:20:40.295Z,38.74
2018-02-11T11:22:33.051Z,39.61
2018-02-11T11:23:33.146Z,40.66
2018-02-11T11:25:25.798Z,41.93
2018-02-11T11:26:25.793Z,41.93
2018-02-11T11:28:18.486Z,40.58
2018-02-11T11:29:18.430Z,38.95
2018-02-11T11:31:11.237Z,40.41
2018-02-11T11:32:11.152Z,40.12
2018-02-11T11:34:03.927Z,40.31
2018-02-11T11:35:03.871Z,40.22
2018-02-11T11:36:56.680Z,39.83
2018-02-11T11:37:56.594Z,39.74
2018-02-11T11:39:49.370Z,39.56
2018-02-11T11:40:49.314Z,39.28
2018-02-11T11:42:42.122Z,38.79
2018-02-11T11:43:42.036Z,38.51
2018-02-11T11:45:34.815Z,38.51
2018-02-11T11:46:34.761Z,38.60
2018-02-11T11:48:27.570Z,38.12
2018-02-11T11:49:27.487Z,37.95
2018-02-11T11:51:20.263Z,37.93
2018-02-11T11:52:20.210Z,38.14
2018-02-11T11:54:13.019Z,37.66
2018-02-11T11:55:12.932Z,37.66
2018-02-11T11:57:05.711Z,37.95
2018-02-11T11:58:05.653Z,37.56
2018-02-11T11:59:58.463Z,37.95
2018-02-11T12:00:58.381Z,37.27
2018-02-11T12:02:51.157Z,37.85
2018-02-11T12:03:51.102Z,37.85
2018-02-11T12:05:43.910Z,37.66
2018-02-11T12:06:43.824Z,37.27
2018-02-11T12:08:36.602Z,37.27
2018-02-11T12:09:36.549Z,37.46
2018-02-11T12:11:29.357Z,37.66
2018-02-11T12:12:29.276Z,37.46
2018-02-11T12:14:22.058Z,37.27
2018-02-11T12:15:22.000Z,37.48
2018-02-11T12:17:14.808Z,37.39
2018-02-11T12:18:14.724Z,37.01
2018-02-11T12:20:07.504Z,37.19
2018-02-11T12:21:07.447Z,36.71
2018-02-11T12:23:00.256Z,36.91
2018-02-11T12:24:00.172Z,37.01
2018-02-11T12:25:52.949Z,37.10
2018-02-11T12:26:52.894Z,37.10
2018-02-11T12:28:45.711Z,37.10
2018-02-11T12:29:45.622Z,37.01
2018-02-11T12:31:38.395Z,37.10
2018-02-11T12:32:38.341Z,37.29
2018-02-11T12:34:31.150Z,37.10
2018-02-11T12:35:31.062Z,37.29
2018-02-11T12:37:23.839Z,37.10
2018-02-11T12:38:23.786Z,37.10
2018-02-11T12:40:16.596Z,37.01
2018-02-11T12:41:16.509Z,36.71
2018-02-11T12:43:09.286Z,36.61
2018-02-11T12:44:09.232Z,36.81
2018-02-11T12:46:02.041Z,36.81
2018-02-11T12:47:01.964Z,36.91
2018-02-11T12:48:54.733Z,36.71
2018-02-11T12:49:54.680Z,36.71
2018-02-11T12:51:47.488Z,36.91
2018-02-11T12:52:47.404Z,36.91
2018-02-11T12:54:40.184Z,36.71
2018-02-11T12:55:40.130Z,36.81
2018-02-11T12:57:32.941Z,36.91
2018-02-11T12:58:32.857Z,36.61
2018-02-11T13:00:25.634Z,36.81
2018-02-11T13:01:25.579Z,36.71
2018-02-11T13:03:18.397Z,36.71
2018-02-11T13:04:18.309Z,36.33
2018-02-11T13:06:11.090Z,35.94
2018-02-11T13:07:11.033Z,36.71
2018-02-11T13:09:03.843Z,36.71
2018-02-11T13:10:03.757Z,36.52
2018-02-11T13:11:56.571Z,36.43
2018-02-11T13:12:56.517Z,36.91
2018-02-11T13:14:49.340Z,36.61
2018-02-11T13:15:49.240Z,36.52
2018-02-11T13:17:42.016Z,36.81
2018-02-11T13:18:41.962Z,36.81
2018-02-11T13:20:34.774Z,36.23
2018-02-11T13:21:34.687Z,35.96
2018-02-11T13:23:27.465Z,36.04
2018-02-11T13:24:27.411Z,36.15
2018-02-11T13:26:20.218Z,36.25
2018-02-11T13:27:20.134Z,36.44
2018-02-11T13:29:12.914Z,36.15
2018-02-11T13:30:12.861Z,36.15
2018-02-11T13:32:05.672Z,35.96
2018-02-11T13:33:05.585Z,36.15
2018-02-11T13:34:58.369Z,35.86
2018-02-11T13:35:58.313Z,35.96
2018-02-11T13:37:51.123Z,35.77
2018-02-11T13:38:51.039Z,36.25
2018-02-11T13:40:43.817Z,36.06
2018-02-11T13:41:43.762Z,36.25
2018-02-11T13:43:36.577Z,36.15
2018-02-11T13:44:36.487Z,36.44
2018-02-11T13:46:29.265Z,36.06
2018-02-11T13:47:29.210Z,36.15
2018-02-11T13:49:22.018Z,36.15
2018-02-11T13:50:21.934Z,36.25
2018-02-11T13:52:14.713Z,36.35
2018-02-11T13:53:14.700Z,36.35
2018-02-11T13:55:07.470Z,36.25
2018-02-11T13:56:07.383Z,36.06
2018-02-11T13:58:00.162Z,36.15
2018-02-11T13:59:00.111Z,35.86
2018-02-11T14:00:52.916Z,36.25
2018-02-11T14:01:52.832Z,36.15
2018-02-11T14:03:45.612Z,36.06
2018-02-11T14:04:45.557Z,36.06
2018-02-11T14:06:38.364Z,36.06
2018-02-11T14:07:38.281Z,35.96
2018-02-11T14:09:31.057Z,35.96
2018-02-11T14:10:31.004Z,35.96
2018-02-11T14:12:23.814Z,36.15
2018-02-11T14:13:23.730Z,36.15
2018-02-11T14:15:16.505Z,36.25
2018-02-11T14:16:16.452Z,36.54
2018-02-11T14:18:09.259Z,36.15
2018-02-11T14:19:09.175Z,36.35
2018-02-11T14:21:01.954Z,36.35
2018-02-11T14:22:01.901Z,36.15
2018-02-11T14:23:54.710Z,35.77
2018-02-11T14:24:54.626Z,35.77
2018-02-11T14:26:47.404Z,36.15
2018-02-11T14:27:47.350Z,36.25
2018-02-11T14:29:40.156Z,35.96
2018-02-11T14:30:40.074Z,35.96
2018-02-11T14:32:32.853Z,36.54
2018-02-11T14:33:32.797Z,36.06
2018-02-11T14:35:25.614Z,36.06
2018-02-11T14:36:25.526Z,36.06
2018-02-11T14:38:18.301Z,36.54
2018-02-11T14:39:18.248Z,36.35
2018-02-11T14:41:11.057Z,36.44
2018-02-11T14:42:10.973Z,35.86
2018-02-11T14:44:03.752Z,36.25
2018-02-11T14:45:03.697Z,36.06
2018-02-11T14:46:56.508Z,36.15
2018-02-11T14:47:56.422Z,36.54
2018-02-11T14:49:49.201Z,36.25
2018-02-11T14:50:49.147Z,35.86
2018-02-11T14:52:41.962Z,36.25
2018-02-11T14:53:41.877Z,36.06
2018-02-11T14:55:34.657Z,36.07
2018-02-11T14:56:34.603Z,36.17
2018-02-11T14:58:27.413Z,35.78
2018-02-11T14:59:27.328Z,35.77
2018-02-11T15:01:20.109Z,35.67
2018-02-11T15:02:20.057Z,35.59
2018-02-11T15:04:12.866Z,35.88
2018-02-11T15:05:12.782Z,35.69
2018-02-11T15:07:05.561Z,35.77
2018-02-11T15:08:05.509Z,35.69
2018-02-11T15:09:58.319Z,35.78
2018-02-11T15:10:58.233Z,35.86
2018-02-11T15:12:51.011Z,35.69
2018-02-11T15:13:50.956Z,35.69
2018-02-11T15:15:43.767Z,35.78
2018-02-11T15:16:43.684Z,35.69
2018-02-11T15:18:36.461Z,35.78
2018-02-11T15:19:36.406Z,35.69
2018-02-11T15:21:29.215Z,35.67
2018-02-11T15:22:29.131Z,35.78
2018-02-11T15:24:21.913Z,35.78
2018-02-11T15:25:21.857Z,35.78
2018-02-11T15:27:14.667Z,35.88
2018-02-11T15:28:14.583Z,35.78
2018-02-11T15:30:07.363Z,36.15
2018-02-11T15:31:07.309Z,35.98
2018-02-11T15:33:00.120Z,35.78
2018-02-11T15:34:00.040Z,35.69
2018-02-11T15:35:52.816Z,35.88
2018-02-11T15:36:52.765Z,35.50
2018-02-11T15:38:45.574Z,35.50
2018-02-11T15:39:45.490Z,35.88
2018-02-11T15:41:38.271Z,35.78
2018-02-11T15:42:38.219Z,35.78
2018-02-11T15:44:31.035Z,35.88
2018-02-11T15:45:30.946Z,35.88
2018-02-11T15:47:23.726Z,35.88
2018-02-11T15:48:23.673Z,35.69
2018-02-11T15:50:16.481Z,35.69
2018-02-11T15:51:16.397Z,35.50
2018-02-11T15:53:09.176Z,35.59
2018-02-11T15:54:09.121Z,35.69
2018-02-11T15:56:01.932Z,35.86
2018-02-11T15:57:01.847Z,35.77
2018-02-11T15:58:54.626Z,35.67
2018-02-11T15:59:54.573Z,35.78
2018-02-11T16:01:47.382Z,35.69
2018-02-11T16:02:47.299Z,35.78
2018-02-11T16:04:40.076Z,35.69
2018-02-11T16:05:40.022Z,35.69
2018-02-11T16:07:32.836Z,35.69
2018-02-11T16:08:32.747Z,35.78
2018-02-11T16:10:25.526Z,35.59
2018-02-11T16:11:25.473Z,35.50
2018-02-11T16:13:18.284Z,35.78
2018-02-11T16:14:18.197Z,35.59
2018-02-11T16:16:10.977Z,35.78
2018-02-11T16:17:10.922Z,35.88
2018-02-11T16:19:03.732Z,35.78
2018-02-11T16:20:03.648Z,35.40
2018-02-11T16:21:56.474Z,35.50
2018-02-11T16:22:56.374Z,35.40
2018-02-11T16:24:49.197Z,35.11
2018-02-11T16:25:49.099Z,35.30
2018-02-11T16:27:41.876Z,35.21
2018-02-11T16:28:41.894Z,35.30
2018-02-11T16:30:34.631Z,35.21
2018-02-11T16:31:34.548Z,35.11
2018-02-11T16:33:27.328Z,35.11
2018-02-11T16:34:27.274Z,35.02
2018-02-11T16:36:20.087Z,35.40
2018-02-11T16:37:20.005Z,35.30
2018-02-11T16:39:12.783Z,35.30
2018-02-11T16:40:12.731Z,35.40
2018-02-11T16:42:05.541Z,35.40
2018-02-11T16:43:05.538Z,35.30
2018-02-11T16:44:58.238Z,35.42
2018-02-11T16:45:58.288Z,35.61
2018-02-11T16:47:50.996Z,35.80
2018-02-11T16:48:50.911Z,35.90
2018-02-11T16:50:43.690Z,35.90
2018-02-11T16:51:43.682Z,35.71
2018-02-11T16:53:36.445Z,35.90
2018-02-11T16:54:36.432Z,35.90
2018-02-11T16:56:29.141Z,35.71
2018-02-11T16:57:29.088Z,35.61
2018-02-11T16:59:21.899Z,35.71
2018-02-11T17:00:21.819Z,35.80
2018-02-11T17:02:14.600Z,35.42
2018-02-11T17:03:14.543Z,35.52
2018-02-11T17:05:07.352Z,35.52
2018-02-11T17:06:07.271Z,35.52
2018-02-11T17:08:00.057Z,35.61
2018-02-11T17:09:00.006Z,35.71
2018-02-11T17:10:52.832Z,35.61
2018-02-11T17:11:52.733Z,35.71
2018-02-11T17:13:45.516Z,35.71
2018-02-11T17:14:45.465Z,36.00
2018-02-11T17:16:38.274Z,36.19
2018-02-11T17:17:38.201Z,36.19
2018-02-11T17:19:30.969Z,36.19
2018-02-11T17:20:30.917Z,36.00
2018-02-11T17:22:23.726Z,36.09
2018-02-11T17:23:23.643Z,36.29
2018-02-11T17:25:16.422Z,36.29
2018-02-11T17:26:16.372Z,36.09
2018-02-11T17:28:09.180Z,36.19
2018-02-11T17:29:09.096Z,35.61
2018-02-11T17:31:01.879Z,35.71
2018-02-11T17:32:01.828Z,35.80
2018-02-11T17:33:54.636Z,36.00
2018-02-11T17:34:54.553Z,35.90
2018-02-11T17:36:47.331Z,36.00
2018-02-11T17:37:47.278Z,36.00
2018-02-11T17:39:40.089Z,36.00
2018-02-11T17:40:40.010Z,36.19
2018-02-11T17:42:32.795Z,36.09
2018-02-11T17:43:32.743Z,36.29
2018-02-11T17:45:25.555Z,36.09
2018-02-11T17:46:25.474Z,36.09
2018-02-11T17:48:18.254Z,36.09
2018-02-11T17:49:18.201Z,36.38
2018-02-11T17:51:11.013Z,36.38
2018-02-11T17:52:10.932Z,36.00
2018-02-11T17:54:03.712Z,36.09
2018-02-11T17:55:03.663Z,36.09
2018-02-11T17:56:56.472Z,36.00
2018-02-11T17:57:56.387Z,36.29
2018-02-11T17:59:49.165Z,36.57
2018-02-11T18:00:49.112Z,36.48
2018-02-11T18:02:41.924Z,36.69
2018-02-11T18:03:41.843Z,36.00
2018-02-11T18:05:34.623Z,36.50
2018-02-11T18:06:34.580Z,36.29
2018-02-11T18:08:27.383Z,36.30
2018-02-11T18:09:27.304Z,36.21
2018-02-11T18:11:20.080Z,36.11
2018-02-11T18:12:20.028Z,36.01
2018-02-11T18:14:12.837Z,35.52
2018-02-11T18:15:12.755Z,35.22
2018-02-11T18:17:05.535Z,34.72
2018-02-11T18:18:05.481Z,34.14
2018-02-11T18:19:58.293Z,34.63
2018-02-11T18:20:58.211Z,34.53
2018-02-11T18:22:50.985Z,35.11
2018-02-11T18:23:50.931Z,35.13
2018-02-11T18:25:43.741Z,35.32
2018-02-11T18:26:43.658Z,35.03
2018-02-11T18:28:36.437Z,36.09
2018-02-11T18:29:36.385Z,36.00
2018-02-11T18:31:29.197Z,36.11